Time;durP1;ratioP1;P1;durP2;ratioP2;P2;SDS_P1;SDS_P2;PMS_P1;PMS_P2;Temp;Humidity;BMP_temperature;BMP_pressure;BME280_temperature;BME280_humidity;BME280_pressure;Samples;Min_cycle;Max_cycle;Signal;HPM_P1;HPM_P2
2024/01/24 00:00:27;;;;;;;11.20;2.03;;;10.80;99.90;;;;;;5245137;22;20015;-81
2024/01/24 00:02:27;;;;;;;13.48;3.17;;;10.90;99.90;;;;;;5217163;22;20086;-81
2024/01/24 00:04:28;;;;;;;16.95;2.10;;;10.90;99.90;;;;;;5243845;22;20014;-80
2024/01/24 00:06:29;;;;;;;14.45;2.13;;;10.90;99.90;;;;;;5244763;22;20409;-81
2024/01/24 00:08:29;;;;;;;13.25;2.28;;;10.90;99.90;;;;;;5244943;22;20137;-80
2024/01/24 00:10:30;;;;;;;16.80;2.20;;;10.90;99.90;;;;;;5217489;22;20023;-81
2024/01/24 00:12:31;;;;;;;14.07;2.58;;;10.90;99.90;;;;;;5244468;22;20060;-81
2024/01/24 00:14:32;;;;;;;13.27;2.78;;;10.90;99.90;;;;;;5244439;22;20391;-81
2024/01/24 00:16:34;;;;;;;12.68;1.77;;;10.90;99.90;;;;;;5245111;22;20015;-81
2024/01/24 00:18:34;;;;;;;15.40;2.58;;;10.90;99.90;;;;;;5245724;22;20018;-81
2024/01/24 00:20:35;;;;;;;9.55;2.00;;;10.80;99.90;;;;;;5245655;22;20045;-81
2024/01/24 00:22:36;;;;;;;15.80;1.85;;;10.90;99.90;;;;;;5245538;22;20048;-81
2024/01/24 00:24:36;;;;;;;16.33;3.60;;;10.90;99.90;;;;;;5245246;22;20021;-81
2024/01/24 00:26:37;;;;;;;11.68;3.20;;;10.90;99.90;;;;;;5244654;22;20014;-81
2024/01/24 00:28:38;;;;;;;13.38;2.83;;;11.00;99.90;;;;;;5245135;22;20011;-81
2024/01/24 00:30:39;;;;;;;26.15;3.35;;;10.90;99.90;;;;;;5245510;22;20345;-81
2024/01/24 00:32:40;;;;;;;15.73;2.80;;;10.80;99.90;;;;;;5245481;22;20018;-81
2024/01/24 00:34:40;;;;;;;17.48;3.42;;;10.90;99.90;;;;;;5245559;22;20090;-81
2024/01/24 00:36:41;;;;;;;13.98;2.35;;;10.80;99.90;;;;;;5245568;22;20015;-81
2024/01/24 00:38:42;;;;;;;21.48;2.47;;;10.80;99.90;;;;;;5245128;22;20018;-81
2024/01/24 00:40:42;;;;;;;19.80;4.00;;;10.80;99.90;;;;;;5244899;22;20042;-80
2024/01/24 00:42:43;;;;;;;11.18;2.30;;;10.80;99.90;;;;;;5245485;22;20023;-81
2024/01/24 00:44:47;;;;;;;11.88;2.03;;;10.80;99.90;;;;;;5245357;22;20026;-81
2024/01/24 00:46:48;;;;;;;15.63;2.63;;;10.80;99.90;;;;;;5246806;22;20072;-81
2024/01/24 00:48:49;;;;;;;9.63;2.05;;;10.90;99.90;;;;;;5247325;22;20019;-81
2024/01/24 00:50:49;;;;;;;15.77;2.55;;;10.90;99.90;;;;;;5246380;22;20015;-81
2024/01/24 00:52:52;;;;;;;14.15;2.55;;;10.90;99.90;;;;;;5246147;22;20384;-81
2024/01/24 00:54:53;;;;;;;19.80;2.17;;;10.80;99.90;;;;;;5247175;22;20010;-81
2024/01/24 00:56:54;;;;;;;13.95;2.13;;;10.90;99.90;;;;;;5246671;22;20494;-81
2024/01/24 00:58:55;;;;;;;10.73;3.13;;;10.90;99.90;;;;;;5246844;22;20094;-81
2024/01/24 01:00:55;;;;;;;10.13;1.90;;;10.80;99.90;;;;;;5246800;22;20589;-80
2024/01/24 01:02:56;;;;;;;13.20;2.67;;;10.90;99.90;;;;;;5246632;22;20014;-80
2024/01/24 01:04:56;;;;;;;13.80;2.30;;;10.80;99.90;;;;;;5246395;22;20018;-81
2024/01/24 01:06:57;;;;;;;17.83;2.05;;;10.80;99.90;;;;;;5248820;22;20015;-80
2024/01/24 01:09:00;;;;;;;11.48;2.10;;;10.90;99.90;;;;;;5255902;22;20488;-80
2024/01/24 01:11:00;;;;;;;12.50;1.70;;;10.80;99.90;;;;;;5246599;22;20492;-80
2024/01/24 01:13:02;;;;;;;5.90;1.88;;;10.80;99.90;;;;;;5246051;22;20010;-81
2024/01/24 01:15:04;;;;;;;10.68;1.67;;;10.70;99.90;;;;;;5246390;22;20015;-81
2024/01/24 01:17:05;;;;;;;10.40;1.83;;;10.70;99.90;;;;;;5246056;22;20042;-81
2024/01/24 01:19:06;;;;;;;15.52;2.78;;;10.60;99.90;;;;;;5246302;22;20015;-81
2024/01/24 01:21:08;;;;;;;12.00;1.90;;;10.60;99.90;;;;;;5246305;22;20019;-81
2024/01/24 01:23:09;;;;;;;14.13;2.00;;;10.60;99.90;;;;;;5246481;22;20072;-81
2024/01/24 01:25:09;;;;;;;18.23;1.58;;;10.60;99.90;;;;;;5246743;22;20015;-81
2024/01/24 01:27:10;;;;;;;11.07;1.77;;;10.60;99.90;;;;;;5246482;22;20019;-82
2024/01/24 01:29:11;;;;;;;15.98;1.95;;;10.60;99.90;;;;;;5246510;22;20337;-81
2024/01/24 01:31:11;;;;;;;9.15;1.27;;;10.70;99.90;;;;;;5245293;22;20500;-81
2024/01/24 01:33:12;;;;;;;17.92;2.17;;;10.70;99.90;;;;;;5246150;22;20018;-81
2024/01/24 01:35:13;;;;;;;9.10;1.77;;;10.70;99.90;;;;;;5245701;22;20015;-81
2024/01/24 01:37:14;;;;;;;13.13;2.50;;;10.70;99.90;;;;;;5245976;22;20011;-81
2024/01/24 01:39:15;;;;;;;11.70;1.52;;;10.80;99.90;;;;;;5245357;22;20054;-81
2024/01/24 01:41:15;;;;;;;18.88;2.75;;;10.80;99.90;;;;;;5246048;22;20445;-81
2024/01/24 01:43:16;;;;;;;13.25;1.75;;;10.90;99.90;;;;;;5245971;22;20017;-81
2024/01/24 01:45:17;;;;;;;11.73;1.85;;;10.90;99.90;;;;;;5245783;22;20015;-81
2024/01/24 01:47:17;;;;;;;14.43;2.45;;;11.00;99.90;;;;;;5249976;22;20029;-81
2024/01/24 01:49:19;;;;;;;11.43;1.15;;;11.10;99.90;;;;;;5261255;22;20068;-81
2024/01/24 01:51:20;;;;;;;14.95;2.38;;;11.10;99.90;;;;;;5218980;22;20040;-81
2024/01/24 01:53:21;;;;;;;6.50;1.38;;;11.20;99.90;;;;;;5245896;22;20015;-80
2024/01/24 01:55:21;;;;;;;14.30;2.20;;;11.20;99.90;;;;;;5248853;22;20014;-81
2024/01/24 01:57:22;;;;;;;8.82;1.38;;;11.30;99.90;;;;;;5250451;22;20049;-81
2024/01/24 01:59:25;;;;;;;6.13;0.95;;;11.30;99.90;;;;;;5218188;22;20398;-81
2024/01/24 02:01:26;;;;;;;5.63;0.80;;;11.30;99.90;;;;;;5246022;22;20044;-81
2024/01/24 02:03:27;;;;;;;8.15;1.17;;;11.40;99.90;;;;;;5218413;22;20015;-82
2024/01/24 02:05:28;;;;;;;8.35;1.10;;;11.50;99.90;;;;;;5245930;22;20018;-81
2024/01/24 02:07:28;;;;;;;10.85;2.08;;;11.50;99.90;;;;;;5192295;22;20019;-81
2024/01/24 02:09:29;;;;;;;10.50;1.77;;;11.50;99.90;;;;;;5245305;22;20040;-81
2024/01/24 02:11:30;;;;;;;5.30;1.05;;;11.60;99.90;;;;;;5245296;22;20068;-81
2024/01/24 02:13:31;;;;;;;6.80;1.10;;;11.50;99.90;;;;;;5245278;22;20014;-81
2024/01/24 02:15:32;;;;;;;2.08;0.60;;;11.60;99.90;;;;;;5245647;22;20438;-82
2024/01/24 02:17:33;;;;;;;5.72;0.80;;;11.60;99.90;;;;;;5245668;22;20021;-81
2024/01/24 02:19:33;;;;;;;9.85;1.20;;;11.60;99.90;;;;;;5245697;22;20054;-81
2024/01/24 02:21:34;;;;;;;9.95;1.00;;;11.60;99.90;;;;;;5246188;22;20069;-81
2024/01/24 02:23:37;;;;;;;8.38;0.98;;;11.70;99.90;;;;;;5218889;22;20020;-81
2024/01/24 02:25:37;;;;;;;6.47;0.90;;;11.70;99.90;;;;;;5245956;22;20015;-81
2024/01/24 02:27:38;;;;;;;11.25;1.10;;;11.70;99.90;;;;;;5245562;22;20010;-81
2024/01/24 02:29:40;;;;;;;4.95;1.40;;;11.80;99.90;;;;;;5245489;22;20010;-81
2024/01/24 02:31:40;;;;;;;9.65;1.05;;;11.80;99.90;;;;;;5246148;22;20015;-81
2024/01/24 02:33:41;;;;;;;5.75;0.93;;;11.80;99.90;;;;;;5246120;22;20021;-81
2024/01/24 02:35:42;;;;;;;8.52;1.38;;;11.80;99.90;;;;;;5245981;22;20015;-81
2024/01/24 02:37:42;;;;;;;5.18;1.20;;;11.80;99.90;;;;;;5246002;22;20025;-81
2024/01/24 02:39:43;;;;;;;9.40;2.08;;;11.70;99.90;;;;;;5245281;22;20010;-80
2024/01/24 02:41:44;;;;;;;14.48;2.15;;;11.70;99.90;;;;;;5245213;22;20060;-81
2024/01/24 02:43:44;;;;;;;4.85;1.45;;;11.70;99.90;;;;;;5245973;22;20056;-81
2024/01/24 02:45:45;;;;;;;5.43;0.85;;;11.70;99.90;;;;;;5246133;22;20098;-81
2024/01/24 02:47:46;;;;;;;12.98;1.20;;;11.70;99.90;;;;;;5246197;22;20015;-81
2024/01/24 02:49:46;;;;;;;10.82;2.35;;;11.70;99.90;;;;;;5245413;22;20018;-81
2024/01/24 02:51:47;;;;;;;8.18;1.25;;;11.70;99.90;;;;;;5245659;22;20014;-81
2024/01/24 02:53:48;;;;;;;16.10;1.73;;;11.80;99.90;;;;;;5218016;22;20443;-81
2024/01/24 02:55:49;;;;;;;12.25;1.15;;;;;;;;;;5245671;22;20026;-82
2024/01/24 02:57:49;;;;;;;10.73;1.70;;;11.70;99.90;;;;;;5245828;22;20018;-82
2024/01/24 02:59:50;;;;;;;7.90;1.10;;;11.70;99.90;;;;;;5245968;22;20445;-81
2024/01/24 03:01:50;;;;;;;13.90;1.80;;;11.80;99.90;;;;;;5245310;22;20033;-81
2024/01/24 03:03:51;;;;;;;11.02;1.98;;;11.90;99.90;;;;;;5245786;22;20022;-81
2024/01/24 03:05:53;;;;;;;10.75;1.67;;;11.70;99.90;;;;;;5246139;22;20036;-81
2024/01/24 03:07:54;;;;;;;14.07;2.65;;;11.70;99.90;;;;;;5217759;22;20200;-81
2024/01/24 03:09:54;;;;;;;8.07;1.80;;;11.60;99.90;;;;;;5244900;22;20018;-81
2024/01/24 03:11:55;;;;;;;20.08;3.33;;;11.60;99.90;;;;;;5244861;22;20089;-82
2024/01/24 03:13:55;;;;;;;7.07;1.65;;;11.50;99.90;;;;;;5244495;22;20026;-81
2024/01/24 03:15:56;;;;;;;10.93;1.27;;;11.50;99.90;;;;;;5244630;22;20015;-81
2024/01/24 03:17:56;;;;;;;13.98;1.58;;;11.50;99.90;;;;;;5244939;22;20509;-81
2024/01/24 03:19:57;;;;;;;9.05;1.63;;;11.40;99.90;;;;;;5244723;22;20029;-81
2024/01/24 03:21:58;;;;;;;17.52;3.33;;;11.30;99.90;;;;;;5217661;22;20019;-81
2024/01/24 03:23:59;;;;;;;13.60;1.80;;;11.40;99.90;;;;;;5244622;22;20014;-81
2024/01/24 03:26:00;;;;;;;17.83;2.47;;;11.30;99.90;;;;;;5245189;22;20433;-81
2024/01/24 03:28:00;;;;;;;14.57;2.08;;;11.20;99.90;;;;;;5244913;22;20011;-81
2024/01/24 03:30:01;;;;;;;14.43;2.47;;;11.20;99.90;;;;;;5217095;22;20026;-81
2024/01/24 03:32:02;;;;;;;12.77;2.65;;;11.10;99.90;;;;;;5244565;22;20011;-81
2024/01/24 03:34:02;;;;;;;8.75;1.45;;;11.10;99.90;;;;;;5244492;22;20310;-82
2024/01/24 03:36:03;;;;;;;16.83;2.00;;;11.10;99.90;;;;;;5244640;22;20382;-81
2024/01/24 03:38:04;;;;;;;7.75;1.42;;;11.10;99.90;;;;;;5245063;22;20041;-81
2024/01/24 03:40:06;;;;;;;14.98;2.55;;;11.10;99.90;;;;;;5244550;22;20011;-81
2024/01/24 03:42:06;;;;;;;19.40;2.50;;;11.00;99.90;;;;;;5244745;22;20451;-81
2024/01/24 03:44:07;;;;;;;15.35;2.25;;;11.00;99.90;;;;;;5243812;22;20453;-81
2024/01/24 03:46:08;;;;;;;11.75;2.45;;;11.00;99.90;;;;;;5244721;22;20341;-81
2024/01/24 03:48:09;;;;;;;19.85;3.63;;;11.00;99.90;;;;;;5244929;22;20090;-81
2024/01/24 03:50:10;;;;;;;21.98;3.83;;;10.90;99.90;;;;;;5244927;22;20046;-81
2024/01/24 03:52:10;;;;;;;18.20;3.47;;;11.00;99.90;;;;;;5243992;22;20014;-81
2024/01/24 03:54:11;;;;;;;18.17;3.40;;;11.00;99.90;;;;;;5244884;22;20015;-81
2024/01/24 03:56:11;;;;;;;15.25;2.03;;;11.00;99.90;;;;;;5245007;22;20015;-85
2024/01/24 03:58:12;;;;;;;13.68;1.63;;;11.00;99.90;;;;;;5217164;22;20019;-81
2024/01/24 04:00:15;;;;;;;14.77;2.05;;;11.00;99.90;;;;;;5244760;22;20021;-81
2024/01/24 04:02:16;;;;;;;20.17;3.80;;;11.00;99.90;;;;;;5244835;22;20064;-81
2024/01/24 04:04:17;;;;;;;13.00;2.38;;;11.10;99.90;;;;;;5244758;22;20030;-81
2024/01/24 04:06:17;;;;;;;21.30;2.70;;;11.10;99.90;;;;;;5217075;22;20019;-81
2024/01/24 04:08:18;;;;;;;14.25;2.53;;;11.10;99.90;;;;;;5217656;22;20047;-81
2024/01/24 04:10:19;;;;;;;7.40;3.15;;;11.00;99.90;;;;;;5244453;22;20018;-81
2024/01/24 04:12:20;;;;;;;12.00;1.80;;;11.00;99.90;;;;;;5244646;22;20341;-81
2024/01/24 04:14:20;;;;;;;14.43;2.78;;;11.00;99.90;;;;;;5244845;22;20018;-81
2024/01/24 04:16:21;;;;;;;11.57;2.15;;;11.10;99.90;;;;;;5216733;22;20015;-81
2024/01/24 04:18:21;;;;;;;11.60;1.80;;;11.00;99.90;;;;;;5245081;22;20011;-81
2024/01/24 04:20:22;;;;;;;17.58;2.85;;;11.00;99.90;;;;;;5245703;22;20452;-81
2024/01/24 04:22:23;;;;;;;16.85;3.13;;;11.00;99.90;;;;;;5218927;22;20345;-81
2024/01/24 04:24:23;;;;;;;16.95;2.67;;;11.00;99.90;;;;;;5246268;22;20441;-81
2024/01/24 04:26:24;;;;;;;9.52;2.60;;;11.00;99.90;;;;;;5246062;22;20017;-81
2024/01/24 04:28:25;;;;;;;12.45;2.00;;;11.00;99.90;;;;;;5245942;22;20019;-81
2024/01/24 04:30:25;;;;;;;20.77;3.50;;;10.90;99.90;;;;;;5246404;22;20010;-81
2024/01/24 04:32:26;;;;;;;12.32;2.33;;;10.90;99.90;;;;;;5245916;22;20014;-81
2024/01/24 04:34:26;;;;;;;15.77;2.55;;;10.90;99.90;;;;;;5245894;22;20014;-81
2024/01/24 04:36:28;;;;;;;20.17;2.15;;;10.90;99.90;;;;;;5246229;22;20015;-81
2024/01/24 04:38:29;;;;;;;19.48;3.50;;;10.90;99.90;;;;;;5246022;22;20015;-81
2024/01/24 04:40:29;;;;;;;18.83;3.35;;;10.90;99.90;;;;;;5246044;22;20091;-81
2024/01/24 04:42:30;;;;;;;11.27;2.55;;;10.80;99.90;;;;;;5246128;22;20014;-81
2024/01/24 04:44:31;;;;;;;10.48;2.22;;;10.80;99.90;;;;;;5246363;22;20067;-81
2024/01/24 04:46:31;;;;;;;23.75;4.10;;;10.80;99.90;;;;;;5246455;22;20014;-81
2024/01/24 04:48:32;;;;;;;27.15;3.67;;;10.80;99.90;;;;;;5245935;22;20019;-81
2024/01/24 04:50:33;;;;;;;17.42;2.28;;;10.70;99.90;;;;;;5245883;22;20014;-81
2024/01/24 04:52:34;;;;;;;26.13;3.45;;;10.70;99.90;;;;;;5245545;22;20433;-81
2024/01/24 04:54:35;;;;;;;25.73;3.30;;;10.60;99.90;;;;;;5245965;22;20068;-81
2024/01/24 04:56:37;;;;;;;17.90;4.18;;;10.70;99.90;;;;;;5218542;22;20120;-81
2024/01/24 04:58:40;;;;;;;25.02;3.25;;;10.60;99.90;;;;;;5218343;22;20023;-81
2024/01/24 05:00:41;;;;;;;16.05;2.85;;;10.60;99.90;;;;;;5245626;22;20052;-81
2024/01/24 05:02:41;;;;;;;16.75;2.50;;;10.60;99.90;;;;;;5245923;22;20364;-81
2024/01/24 05:04:42;;;;;;;16.55;2.63;;;10.60;99.90;;;;;;5245360;22;20039;-82
2024/01/24 05:06:43;;;;;;;15.88;3.33;;;10.70;99.90;;;;;;5218830;22;20015;-81
2024/01/24 05:08:44;;;;;;;21.58;2.47;;;10.60;99.90;;;;;;5246239;22;20018;-81
2024/01/24 05:10:45;;;;;;;24.48;3.38;;;10.60;99.90;;;;;;5218587;22;20035;-81
2024/01/24 05:12:46;;;;;;;19.73;3.22;;;10.60;99.90;;;;;;5193236;22;20011;-81
2024/01/24 05:14:46;;;;;;;18.27;3.47;;;10.50;99.90;;;;;;5246182;22;20040;-81
2024/01/24 05:16:49;;;;;;;18.67;4.90;;;10.50;99.90;;;;;;5245528;22;20022;-81
2024/01/24 05:18:49;;;;;;;20.45;3.78;;;10.50;99.90;;;;;;5245763;22;20096;-82
2024/01/24 05:20:50;;;;;;;21.15;3.35;;;10.50;99.90;;;;;;5217934;22;20015;-81
2024/01/24 05:22:52;;;;;;;27.23;3.90;;;10.50;99.90;;;;;;5218439;22;20385;-81
2024/01/24 05:24:52;;;;;;;31.20;4.50;;;10.50;99.90;;;;;;5245877;22;20018;-81
2024/01/24 05:26:53;;;;;;;30.27;4.22;;;10.50;99.90;;;;;;5245756;22;20021;-81
2024/01/24 05:28:54;;;;;;;22.25;4.78;;;10.50;99.90;;;;;;5245144;22;20046;-81
2024/01/24 05:30:54;;;;;;;33.17;5.50;;;10.50;99.90;;;;;;5245576;22;20018;-81
2024/01/24 05:32:56;;;;;;;26.25;3.92;;;10.60;99.90;;;;;;5218401;22;20011;-81
2024/01/24 05:34:57;;;;;;;32.92;4.07;;;10.50;99.90;;;;;;5245492;22;20485;-82
2024/01/24 05:36:58;;;;;;;24.30;3.25;;;10.50;99.90;;;;;;5245897;22;20046;-81
2024/01/24 05:38:58;;;;;;;28.55;4.22;;;10.50;99.90;;;;;;5245987;22;20011;-81
2024/01/24 05:41:00;;;;;;;28.30;4.43;;;10.50;99.90;;;;;;5245995;22;20139;-81
2024/01/24 05:43:02;;;;;;;32.28;3.75;;;10.40;99.90;;;;;;5248262;22;20472;-81
2024/01/24 05:45:03;;;;;;;23.70;3.60;;;10.50;99.90;;;;;;5251607;22;20086;-81
2024/01/24 05:47:04;;;;;;;24.15;4.47;;;10.50;99.90;;;;;;5248944;22;20460;-81
2024/01/24 05:49:05;;;;;;;28.55;4.45;;;10.50;99.90;;;;;;5221607;22;20030;-81
2024/01/24 05:51:05;;;;;;;29.50;5.15;;;10.50;99.90;;;;;;5249481;22;20093;-81
2024/01/24 05:53:06;;;;;;;29.00;4.68;;;10.50;99.90;;;;;;5247604;22;20011;-81
2024/01/24 05:55:07;;;;;;;25.60;4.85;;;10.50;99.90;;;;;;5219937;22;20034;-81
2024/01/24 05:57:07;;;;;;;29.73;4.82;;;10.50;99.90;;;;;;5246778;22;20086;-82
2024/01/24 05:59:09;;;;;;;29.02;5.13;;;10.40;99.90;;;;;;5246671;22;20026;-81
2024/01/24 06:01:10;;;;;;;26.98;5.20;;;10.40;99.90;;;;;;5245971;22;20015;-81
2024/01/24 06:03:11;;;;;;;24.42;3.65;;;10.40;99.90;;;;;;5245280;22;20017;-81
2024/01/24 06:05:15;;;;;;;21.80;4.85;;;10.40;99.90;;;;;;5246191;22;20429;-81
2024/01/24 06:07:15;;;;;;;26.92;5.50;;;10.30;99.90;;;;;;5246093;22;20010;-81
2024/01/24 06:09:20;;;;;;;28.65;3.80;;;10.40;99.90;;;;;;5245751;22;20050;-81
2024/01/24 06:11:21;;;;;;;28.85;5.00;;;10.30;99.90;;;;;;5245874;22;20395;-81
2024/01/24 06:13:21;;;;;;;33.92;5.10;;;10.40;99.90;;;;;;5245666;22;20015;-81
2024/01/24 06:15:22;;;;;;;35.05;6.68;;;10.40;99.90;;;;;;5244703;22;20010;-82
2024/01/24 06:17:22;;;;;;;31.80;5.22;;;10.40;99.90;;;;;;5245423;22;20510;-81
2024/01/24 06:19:24;;;;;;;21.40;3.50;;;10.30;99.90;;;;;;5245993;22;20015;-81
2024/01/24 06:21:25;;;;;;;27.27;4.18;;;10.20;99.90;;;;;;5246075;22;20023;-81
2024/01/24 06:23:25;;;;;;;28.38;5.03;;;10.20;99.90;;;;;;5245426;22;20013;-81
2024/01/24 06:25:26;;;;;;;28.60;4.07;;;10.30;99.90;;;;;;5245393;22;20104;-81
2024/01/24 06:27:27;;;;;;;23.20;3.83;;;10.30;99.90;;;;;;5245149;22;20387;-81
2024/01/24 06:29:29;;;;;;;30.35;5.90;;;10.20;99.90;;;;;;5217823;22;20492;-81
2024/01/24 06:31:30;;;;;;;24.90;4.00;;;10.20;99.90;;;;;;5217288;22;20098;-81
2024/01/24 06:33:31;;;;;;;34.38;6.63;;;10.20;99.90;;;;;;5245394;22;20037;-81
2024/01/24 06:35:31;;;;;;;22.50;3.13;;;10.20;99.90;;;;;;5245021;22;20029;-81
2024/01/24 06:37:32;;;;;;;23.13;3.85;;;10.20;99.90;;;;;;5245854;22;20050;-81
2024/01/24 06:39:32;;;;;;;19.77;3.45;;;10.10;99.90;;;;;;5245894;22;20082;-81
2024/01/24 06:41:33;;;;;;;27.30;6.53;;;10.20;99.90;;;;;;5245627;22;20337;-82
2024/01/24 06:43:37;;;;;;;36.35;6.63;;;10.00;99.90;;;;;;5245220;22;20026;-81
2024/01/24 06:45:37;;;;;;;14.43;2.83;;;10.00;99.90;;;;;;5217751;22;20023;-82
2024/01/24 06:47:38;;;;;;;28.38;4.97;;;10.00;99.90;;;;;;5245400;22;20025;-82
2024/01/24 06:49:39;;;;;;;46.30;6.47;;;10.00;99.90;;;;;;5244480;22;20011;-82
2024/01/24 06:51:39;;;;;;;22.48;5.53;;;10.10;99.90;;;;;;5245311;22;20064;-81
2024/01/24 06:53:40;;;;;;;39.65;6.68;;;9.90;99.90;;;;;;5217571;22;20053;-82
2024/01/24 06:55:41;;;;;;;49.45;5.25;;;9.90;99.90;;;;;;5245229;22;20014;-82
2024/01/24 06:57:42;;;;;;;32.13;4.95;;;10.00;99.90;;;;;;5245883;22;20046;-81
2024/01/24 06:59:43;;;;;;;21.05;5.13;;;10.00;99.90;;;;;;5244588;22;20015;-81
2024/01/24 07:01:44;;;;;;;30.27;4.65;;;9.90;99.90;;;;;;5245100;22;20014;-81
2024/01/24 07:03:44;;;;;;;35.00;5.57;;;9.80;99.90;;;;;;5245032;22;20323;-81
2024/01/24 07:05:45;;;;;;;29.30;4.13;;;9.90;99.90;;;;;;5245305;22;20538;-82
2024/01/24 07:07:46;;;;;;;23.48;3.60;;;9.90;99.90;;;;;;5217891;22;20090;-82
2024/01/24 07:09:47;;;;;;;29.45;5.47;;;9.80;99.90;;;;;;5244472;22;20015;-81
2024/01/24 07:11:47;;;;;;;28.63;5.28;;;9.90;99.90;;;;;;5244975;22;20018;-82
2024/01/24 07:13:48;;;;;;;27.77;3.92;;;9.80;99.90;;;;;;5192284;22;20020;-82
2024/01/24 07:15:49;;;;;;;25.23;4.72;;;9.90;99.90;;;;;;5253546;22;20014;-81
2024/01/24 07:17:49;;;;;;;16.92;3.65;;;10.10;99.90;;;;;;5245359;22;20036;-81
2024/01/24 07:19:51;;;;;;;18.63;2.75;;;9.90;99.90;;;;;;5245657;22;20093;-82
2024/01/24 07:21:51;;;;;;;30.38;4.95;;;9.80;99.90;;;;;;5245444;22;20023;-82
2024/01/24 07:23:52;;;;;;;33.33;4.45;;;9.80;99.90;;;;;;5245860;22;20014;-81
2024/01/24 07:25:53;;;;;;;19.40;3.50;;;9.90;99.90;;;;;;5245769;22;20015;-81
2024/01/24 07:27:54;;;;;;;21.85;4.55;;;9.80;99.90;;;;;;5247001;22;20046;-81
2024/01/24 07:29:54;;;;;;;19.98;4.65;;;9.80;99.90;;;;;;5219229;22;20058;-82
2024/01/24 07:31:55;;;;;;;29.35;4.43;;;9.80;99.90;;;;;;5245103;22;20082;-82
2024/01/24 07:33:56;;;;;;;16.70;3.85;;;9.80;99.90;;;;;;5245414;22;20076;-81
2024/01/24 07:35:57;;;;;;;29.05;5.03;;;9.60;99.90;;;;;;5245568;22;20021;-79
2024/01/24 07:37:58;;;;;;;21.88;3.30;;;9.80;99.90;;;;;;5245029;22;20050;-78
2024/01/24 07:39:59;;;;;;;30.80;4.57;;;9.80;99.90;;;;;;5244949;22;20027;-79
2024/01/24 07:41:59;;;;;;;24.58;4.72;;;9.80;99.90;;;;;;5245122;22;20010;-80
2024/01/24 07:44:00;;;;;;;15.45;2.47;;;9.80;99.90;;;;;;5245037;22;20015;-80
2024/01/24 07:46:01;;;;;;;26.30;3.85;;;9.80;99.90;;;;;;5245509;22;20530;-80
2024/01/24 07:48:05;;;;;;;27.63;4.80;;;9.80;99.90;;;;;;5245029;22;20042;-80
2024/01/24 07:50:06;;;;;;;21.73;4.20;;;9.80;99.90;;;;;;5245046;22;20338;-80
2024/01/24 07:52:07;;;;;;;26.77;4.57;;;9.70;99.90;;;;;;5244762;22;20018;-80
2024/01/24 07:54:08;;;;;;;25.23;5.20;;;9.70;99.90;;;;;;5245528;22;20015;-80
2024/01/24 07:56:10;;;;;;;21.83;3.92;;;9.80;99.90;;;;;;5246647;22;20457;-80
2024/01/24 07:58:11;;;;;;;31.63;4.43;;;9.70;99.90;;;;;;5219667;22;20016;-80
2024/01/24 08:00:16;;;;;;;31.25;4.07;;;10.30;99.90;;;;;;5247074;22;20497;-80
2024/01/24 08:02:16;;;;;;;26.63;5.45;;;9.70;99.90;;;;;;5247292;22;20026;-80
2024/01/24 08:04:18;;;;;;;26.17;3.33;;;9.70;99.90;;;;;;5247083;22;20015;-79
2024/01/24 08:06:19;;;;;;;32.55;4.90;;;9.70;99.90;;;;;;5246623;22;20011;-80
2024/01/24 08:08:20;;;;;;;31.67;5.13;;;9.70;99.90;;;;;;5247177;22;20071;-79
2024/01/24 08:10:21;;;;;;;28.27;5.07;;;9.70;99.90;;;;;;5247262;22;20093;-79
2024/01/24 08:12:23;;;;;;;20.23;4.32;;;9.70;99.90;;;;;;5247069;22;20007;-79
2024/01/24 08:14:24;;;;;;;26.17;4.70;;;9.70;99.90;;;;;;5247238;22;20011;-80
2024/01/24 08:16:25;;;;;;;32.75;5.15;;;9.70;99.90;;;;;;5246672;22;20349;-79
2024/01/24 08:18:25;;;;;;;29.35;5.03;;;9.70;99.90;;;;;;5246929;22;20123;-79
2024/01/24 08:20:27;;;;;;;26.77;4.07;;;9.80;99.90;;;;;;5218639;22;20023;-80
2024/01/24 08:22:29;;;;;;;25.70;3.60;;;9.80;99.90;;;;;;5247351;22;20089;-80
2024/01/24 08:24:29;;;;;;;27.58;4.43;;;9.80;99.90;;;;;;5247312;22;20011;-80
2024/01/24 08:26:30;;;;;;;21.38;3.85;;;9.80;99.90;;;;;;5246955;22;20021;-80
2024/01/24 08:28:31;;;;;;;24.88;4.65;;;9.80;99.90;;;;;;5247469;22;20011;-81
2024/01/24 08:30:32;;;;;;;28.05;5.60;;;9.80;99.90;;;;;;5246521;22;20014;-80
2024/01/24 08:32:33;;;;;;;26.02;4.40;;;9.80;99.90;;;;;;5247066;22;20375;-80
2024/01/24 08:34:36;;;;;;;30.65;4.43;;;9.70;99.90;;;;;;5219566;22;20098;-80
2024/01/24 08:36:38;;;;;;;25.83;3.92;;;9.80;99.90;;;;;;5247499;22;20096;-80
2024/01/24 08:38:39;;;;;;;36.38;5.40;;;9.80;99.90;;;;;;5247225;22;20011;-80
2024/01/24 08:40:40;;;;;;;26.60;4.45;;;9.80;99.90;;;;;;5246936;22;20082;-81
2024/01/24 08:42:42;;;;;;;30.83;4.60;;;9.90;99.90;;;;;;5247478;22;20014;-81
2024/01/24 08:44:42;;;;;;;32.85;5.68;;;9.90;99.90;;;;;;5247586;22;20015;-80
2024/01/24 08:46:43;;;;;;;25.55;4.88;;;9.90;99.90;;;;;;5246941;22;20094;-80
2024/01/24 08:48:45;;;;;;;27.30;5.13;;;9.90;99.90;;;;;;5246363;22;20014;-80
2024/01/24 08:50:47;;;;;;;24.38;3.80;;;10.00;99.90;;;;;;5247383;22;20436;-80
2024/01/24 08:52:50;;;;;;;19.25;3.55;;;10.00;99.90;;;;;;5246761;22;20037;-80
2024/01/24 08:54:50;;;;;;;26.38;4.25;;;10.00;99.90;;;;;;5247431;22;20392;-80
2024/01/24 08:56:51;;;;;;;32.72;5.63;;;10.20;99.90;;;;;;5246964;22;20026;-79
2024/01/24 08:58:52;;;;;;;30.42;4.68;;;10.20;99.90;;;;;;5246680;22;20015;-80
2024/01/24 09:00:53;;;;;;;25.60;4.38;;;10.30;99.90;;;;;;5247201;22;20010;-80
2024/01/24 09:02:53;;;;;;;34.13;5.68;;;10.40;99.90;;;;;;5246639;22;20167;-81
2024/01/24 09:04:54;;;;;;;29.80;4.18;;;10.40;99.90;;;;;;5219446;22;20057;-81
2024/01/24 09:06:55;;;;;;;27.98;4.60;;;10.40;99.90;;;;;;5244876;22;20011;-81
2024/01/24 09:08:56;;;;;;;31.38;6.38;;;10.60;99.90;;;;;;5245212;22;20015;-80
2024/01/24 09:10:56;;;;;;;28.55;4.68;;;10.60;99.90;;;;;;5245847;22;20011;-81
2024/01/24 09:12:58;;;;;;;21.15;3.75;;;10.70;99.90;;;;;;5245541;22;20011;-80
2024/01/24 09:14:59;;;;;;;27.73;4.82;;;10.70;99.90;;;;;;5245786;22;20019;-80
2024/01/24 09:17:00;;;;;;;17.80;2.65;;;10.80;99.90;;;;;;5245213;22;20094;-81
2024/01/24 09:19:01;;;;;;;23.50;4.43;;;10.80;99.90;;;;;;5245152;22;20068;-81
2024/01/24 09:21:01;;;;;;;24.10;4.70;;;10.80;99.90;;;;;;5217799;22;20011;-79
2024/01/24 09:23:02;;;;;;;21.48;3.42;;;10.90;99.90;;;;;;5246331;22;20014;-80
2024/01/24 09:25:03;;;;;;;24.65;4.20;;;10.90;99.90;;;;;;5246729;22;20019;-79
2024/01/24 09:27:04;;;;;;;18.15;3.15;;;11.20;99.90;;;;;;5247029;22;20026;-80
2024/01/24 09:29:05;;;;;;;17.25;3.30;;;11.20;99.90;;;;;;5245788;22;20046;-81
2024/01/24 09:31:06;;;;;;;32.42;5.53;;;11.20;99.90;;;;;;5244947;22;20046;-80
2024/01/24 09:33:07;;;;;;;22.02;4.22;;;11.40;99.90;;;;;;5245365;22;20019;-81
2024/01/24 09:35:08;;;;;;;26.95;5.90;;;11.70;99.90;;;;;;5245758;22;20072;-81
2024/01/24 09:37:09;;;;;;;29.23;4.93;;;11.90;99.90;;;;;;5245622;22;20029;-81
2024/01/24 09:39:09;;;;;;;23.48;4.43;;;11.70;99.90;;;;;;5245374;22;20018;-82
2024/01/24 09:41:18;;;;;;;19.48;3.20;;;11.80;99.90;;;;;;5246018;22;20015;-81
2024/01/24 09:43:22;;;;;;;20.15;3.08;;;11.90;99.90;;;;;;5244254;22;20021;-82
2024/01/24 09:45:24;;;;;;;29.17;5.40;;;12.00;99.90;;;;;;5248320;22;20042;-81
2024/01/24 09:47:25;;;;;;;22.98;3.55;;;12.00;99.90;;;;;;5258926;22;20063;-82
2024/01/24 09:49:30;;;;;;;26.95;4.05;;;12.00;99.90;;;;;;5244359;22;20022;-81
2024/01/24 09:51:34;;;;;;;28.63;5.15;;;11.70;99.90;;;;;;5216699;22;20023;-81
2024/01/24 09:53:39;;;;;;;31.88;5.57;;;11.70;99.90;;;;;;5244165;22;20020;-80
2024/01/24 09:55:39;;;;;;;24.63;4.55;;;11.60;99.90;;;;;;5243266;22;20015;-81
2024/01/24 09:57:41;;;;;;;15.75;3.10;;;11.40;99.90;;;;;;5244782;22;20330;-81
2024/01/24 09:59:42;;;;;;;34.30;6.00;;;11.40;99.90;;;;;;5192868;22;20022;-81
2024/01/24 10:01:43;;;;;;;25.13;4.25;;;11.40;99.90;;;;;;5247143;22;20014;-81
2024/01/24 10:03:45;;;;;;;20.27;3.80;;;11.20;99.90;;;;;;5246966;22;20068;-81
2024/01/24 10:05:48;;;;;;;36.03;4.88;;;11.20;99.90;;;;;;5245958;22;20431;-81
2024/01/24 10:07:50;;;;;;;25.45;4.15;;;11.20;99.90;;;;;;5246673;22;20083;-82
2024/01/24 10:10:07;;;;;;;33.03;4.85;;;11.10;99.90;;;;;;5245997;22;20349;-81
2024/01/24 10:12:08;;;;;;;23.02;3.65;;;11.10;99.90;;;;;;5246696;22;20007;-81
2024/01/24 10:14:09;;;;;;;24.60;3.55;;;11.20;99.90;;;;;;5246963;22;20011;-81
2024/01/24 10:16:09;;;;;;;22.48;3.65;;;11.20;99.90;;;;;;5246627;22;20010;-81
2024/01/24 10:18:10;;;;;;;26.95;4.53;;;11.40;99.90;;;;;;5246442;22;20022;-81
2024/01/24 10:20:12;;;;;;;21.17;4.13;;;11.40;99.90;;;;;;5245733;22;20019;-80
2024/01/24 10:22:12;;;;;;;32.38;5.05;;;11.40;99.90;;;;;;5246367;22;20019;-80
2024/01/24 10:24:13;;;;;;;37.35;7.43;;;11.60;99.90;;;;;;5246695;22;20018;-81